Time;durP1;ratioP1;P1;durP2;ratioP2;P2;SDS_P1;SDS_P2;PMS_P1;PMS_P2;Temp;Humidity;BMP_temperature;BMP_pressure;BME280_temperature;BME280_humidity;BME280_pressure;Samples;Min_cycle;Max_cycle;Signal;HPM_P1;HPM_P2
2024/04/15 00:00:42;;;;;;;;;;;;;;;15.97;53.50;100921.75;5508359;26;1225;-50
2024/04/15 00:03:07;;;;;;;;;;;;;;;17.04;54.47;100923.31;5516297;26;1293;-51
2024/04/15 00:05:33;;;;;;;;;;;;;;;17.18;53.22;100917.88;5513267;26;1401;-50
2024/04/15 00:07:58;;;;;;;;;;;;;;;16.67;54.16;100914.34;5527978;26;1169;-52
2024/04/15 00:10:24;;;;;;;;;;;;;;;16.40;54.16;100916.19;5507403;26;1348;-48
2024/04/15 00:12:51;;;;;;;;;;;;;;;16.21;53.74;100919.28;5524628;26;1853;-50
2024/04/15 00:15:17;;;;;;;;;;;;;;;16.09;53.51;100917.44;5510200;26;1388;-53
2024/04/15 00:17:43;;;;;;;;;;;;;;;16.30;54.55;100922.25;5519585;26;1126;-52
2024/04/15 00:20:08;;;;;;;;;;;;;;;17.49;53.39;100920.94;5509379;26;1348;-51
2024/04/15 00:22:34;;;;;;;;;;;;;;;17.08;53.75;100919.47;5500506;26;1380;-52
2024/04/15 00:24:59;;;;;;;;;;;;;;;16.61;54.04;100918.31;5495358;26;1274;-51
2024/04/15 00:27:25;;;;;;;;;;;;;;;16.41;54.02;100917.06;5526165;26;1152;-52
2024/04/15 00:29:50;;;;;;;;;;;;;;;16.24;53.80;100911.09;5513162;26;1309;-51
2024/04/15 00:32:16;;;;;;;;;;;;;;;16.12;53.55;100909.28;5514359;25;1825;-50
2024/04/15 00:34:41;;;;;;;;;;;;;;;16.04;53.41;100909.81;5495044;26;1182;-53
2024/04/15 00:37:07;;;;;;;;;;;;;;;17.18;53.96;100911.72;5526356;26;1158;-50
2024/04/15 00:39:33;;;;;;;;;;;;;;;17.22;53.22;100915.81;5512569;26;1153;-52
2024/04/15 00:41:58;;;;;;;;;;;;;;;16.72;54.04;100909.56;5520137;26;1119;-51
2024/04/15 00:44:33;;;;;;;;;;;;;;;16.44;53.93;100913.31;5500694;26;1156;-50
2024/04/15 00:46:58;;;;;;;;;;;;;;;16.27;53.70;100910.03;5519413;26;1275;-48
2024/04/15 00:49:24;;;;;;;;;;;;;;;16.09;53.79;100912.16;5463165;26;1253;-47
2024/04/15 00:51:49;;;;;;;;;;;;;;;16.49;54.58;100921.81;5487128;26;1830;-54
2024/04/15 00:54:15;;;;;;;;;;;;;;;17.62;52.99;100912.88;5463065;26;1188;-53
2024/04/15 00:56:40;;;;;;;;;;;;;;;16.91;53.77;100910.06;5511484;26;1195;-52
2024/04/15 00:59:06;;;;;;;;;;;;;;;16.52;53.97;100909.19;5499240;26;1277;-54
2024/04/15 01:01:31;;;;;;;;;;;;;;;16.35;53.75;100907.69;5531100;26;1139;-54
2024/04/15 01:03:57;;;;;;;;;;;;;;;16.22;53.80;100896.22;5512079;26;1208;-53
2024/04/15 01:06:24;;;;;;;;;;;;;;;16.39;54.97;100903.03;5502890;26;1294;-55
2024/04/15 01:08:49;;;;;;;;;;;;;;;17.57;52.92;100899.06;5514130;26;1166;-53
2024/04/15 01:11:15;;;;;;;;;;;;;;;16.88;53.72;100897.84;5494378;26;1830;-52
2024/04/15 01:13:40;;;;;;;;;;;;;;;16.48;54.04;100894.41;5515829;26;1281;-53
2024/04/15 01:16:06;;;;;;;;;;;;;;;16.36;53.77;100889.97;5498184;26;1237;-54
2024/04/15 01:18:31;;;;;;;;;;;;;;;16.24;53.60;100892.53;5515397;26;1181;-51
2024/04/15 01:20:57;;;;;;;;;;;;;;;16.03;53.56;100890.38;5499456;26;1244;-53
2024/04/15 01:23:23;;;;;;;;;;;;;;;16.56;54.71;100893.03;5481667;26;1219;-53
2024/04/15 01:25:48;;;;;;;;;;;;;;;17.61;52.76;100891.72;5505929;26;1161;-51
2024/04/15 01:28:17;;;;;;;;;;;;;;;16.77;53.83;100891.50;5512369;26;1172;-51
2024/04/15 01:30:42;;;;;;;;;;;;;;;16.50;53.87;100889.84;5494737;26;1870;-50
2024/04/15 01:33:08;;;;;;;;;;;;;;;16.25;53.88;100880.06;5494502;26;1162;-50
2024/04/15 01:35:34;;;;;;;;;;;;;;;16.18;53.78;100886.78;5525309;26;1219;-48
2024/04/15 01:37:59;;;;;;;;;;;;;;;16.02;53.71;100882.53;5512323;26;1164;-49
2024/04/15 01:40:25;;;;;;;;;;;;;;;16.54;54.58;100879.84;5524670;26;1167;-51
2024/04/15 01:42:50;;;;;;;;;;;;;;;17.57;52.62;100877.78;5512341;26;1265;-50
2024/04/15 01:45:16;;;;;;;;;;;;;;;16.89;53.87;100887.13;5512660;26;1190;-55
2024/04/15 01:47:44;;;;;;;;;;;;;;;16.42;54.44;100886.88;5530764;26;1137;-51
2024/04/15 01:50:10;;;;;;;;;;;;;;;16.31;54.25;100882.31;5499286;26;1324;-53
2024/04/15 01:52:35;;;;;;;;;;;;;;;16.22;53.59;100881.16;5513732;26;1822;-52
2024/04/15 01:55:01;;;;;;;;;;;;;;;16.20;54.19;100879.56;5498800;26;1296;-53
2024/04/15 01:57:26;;;;;;;;;;;;;;;17.50;53.12;100876.53;5514125;26;1144;-52
2024/04/15 01:59:52;;;;;;;;;;;;;;;17.01;53.78;100882.72;5523714;26;1334;-52
2024/04/15 02:02:17;;;;;;;;;;;;;;;16.55;54.05;100878.06;5494114;26;1205;-51
2024/04/15 02:04:43;;;;;;;;;;;;;;;16.43;53.83;100877.09;5500508;26;1127;-52
2024/04/15 02:07:08;;;;;;;;;;;;;;;16.19;53.95;100878.72;5512180;26;1214;-54
2024/04/15 02:09:35;;;;;;;;;;;;;;;16.06;53.79;100878.72;5509765;26;1291;-51
2024/04/15 02:12:01;;;;;;;;;;;;;;;16.05;53.60;100879.66;5511800;26;1821;-48
2024/04/15 02:14:26;;;;;;;;;;;;;;;16.91;54.30;100883.47;5494201;26;1288;-46
2024/04/15 02:16:52;;;;;;;;;;;;;;;17.37;53.06;100877.47;5512567;26;1137;-52
2024/04/15 02:19:17;;;;;;;;;;;;;;;16.69;53.85;100877.06;5529961;26;1173;-49
2024/04/15 02:21:43;;;;;;;;;;;;;;;16.46;53.86;100880.41;5508204;26;1047;-50
2024/04/15 02:24:13;;;;;;;;;;;;;;;16.22;53.96;100875.84;5517866;26;1170;-47
2024/04/15 02:26:38;;;;;;;;;;;;;;;16.07;53.87;100875.09;5512877;26;1161;-49
2024/04/15 02:29:04;;;;;;;;;;;;;;;16.05;53.64;100878.84;5473473;26;1174;-51
2024/04/15 02:31:29;;;;;;;;;;;;;;;17.30;53.74;100878.06;5529993;26;1825;-54
2024/04/15 02:33:55;;;;;;;;;;;;;;;17.28;53.33;100880.84;5515041;26;1355;-56
2024/04/15 02:36:21;;;;;;;;;;;;;;;16.73;53.66;100875.88;5512684;26;1363;-54
2024/04/15 02:38:49;;;;;;;;;;;;;;;16.44;53.96;100876.13;5498176;26;1309;-53
2024/04/15 02:41:14;;;;;;;;;;;;;;;16.25;53.72;100872.13;5493545;26;1284;-53
2024/04/15 02:43:40;;;;;;;;;;;;;;;16.12;53.68;100880.94;5525653;26;1320;-53
2024/04/15 02:46:05;;;;;;;;;;;;;;;16.05;53.40;100878.84;5525125;26;1053;-52
2024/04/15 02:48:31;;;;;;;;;;;;;;;15.95;53.39;100875.94;5498351;26;1394;-53
2024/04/15 02:50:56;;;;;;;;;;;;;;;16.33;54.70;100876.91;5493810;26;1836;-53
2024/04/15 02:53:22;;;;;;;;;;;;;;;17.57;52.96;100871.63;5517776;26;1162;-52
2024/04/15 02:55:50;;;;;;;;;;;;;;;16.88;54.04;100873.94;5513183;26;1356;-54
2024/04/15 02:58:15;;;;;;;;;;;;;;;16.45;54.33;100872.56;5514849;26;1288;-53
2024/04/15 03:00:41;;;;;;;;;;;;;;;16.28;54.05;100872.75;5493163;26;1173;-55
2024/04/15 03:03:06;;;;;;;;;;;;;;;16.17;53.79;100872.66;5524865;26;1225;-50
2024/04/15 03:05:33;;;;;;;;;;;;;;;15.99;53.91;100862.38;5510190;26;1284;-52
2024/04/15 03:07:58;;;;;;;;;;;;;;;17.02;54.53;100871.13;5500463;26;1240;-53
2024/04/15 03:10:25;;;;;;;;;;;;;;;17.39;53.09;100872.03;5503451;26;1152;-50
2024/04/15 03:12:54;;;;;;;;;;;;;;;16.77;54.11;100878.22;5517326;26;1846;-51
2024/04/15 03:15:20;;;;;;;;;;;;;;;16.50;53.92;100878.34;5514742;26;1491;-57
2024/04/15 03:17:50;;;;;;;;;;;;;;;16.33;53.75;100876.91;5485593;26;1369;-53
2024/04/15 03:20:16;;;;;;;;;;;;;;;16.12;53.67;100875.63;5508209;26;1222;-56
2024/04/15 03:22:45;;;;;;;;;;;;;;;15.99;53.62;100875.63;5504582;26;1174;-56
2024/04/15 03:25:10;;;;;;;;;;;;;;;15.98;53.37;100873.06;5528918;26;1172;-55
2024/04/15 03:27:36;;;;;;;;;;;;;;;16.88;54.32;100879.25;5519251;26;1271;-58
2024/04/15 03:30:01;;;;;;;;;;;;;;;17.47;52.72;100872.31;5514448;26;2876;-56
2024/04/15 03:32:27;;;;;;;;;;;;;;;16.74;54.06;100877.56;5528275;26;1881;-57
2024/04/15 03:34:52;;;;;;;;;;;;;;;16.44;54.16;100869.03;5519110;26;1069;-55
2024/04/15 03:37:18;;;;;;;;;;;;;;;16.20;54.25;100874.25;5494847;26;1248;-54
2024/04/15 03:39:46;;;;;;;;;;;;;;;16.16;53.98;100871.81;5492360;26;1229;-53
2024/04/15 03:42:11;;;;;;;;;;;;;;;15.93;53.63;100872.53;5468913;26;1251;-56
2024/04/15 03:44:37;;;;;;;;;;;;;;;15.90;53.61;100873.56;5491581;26;1253;-56
2024/04/15 03:47:03;;;;;;;;;;;;;;;16.75;54.77;100882.78;5517061;26;1547;-58
2024/04/15 03:49:28;;;;;;;;;;;;;;;17.55;52.97;100885.03;5517609;26;1255;-57
2024/04/15 03:51:54;;;;;;;;;;;;;;;16.79;54.15;100890.53;5495785;26;1871;-61
2024/04/15 03:54:19;;;;;;;;;;;;;;;16.44;54.35;100895.59;5498238;26;1122;-48
2024/04/15 03:56:45;;;;;;;;;;;;;;;16.24;54.13;100889.00;5531845;26;1133;-49
2024/04/15 03:59:11;;;;;;;;;;;;;;;16.09;54.08;100888.25;5498366;26;2779;-53
2024/04/15 04:01:37;;;;;;;;;;;;;;;16.01;53.94;100884.34;5495464;26;1115;-58
2024/04/15 04:04:03;;;;;;;;;;;;;;;15.93;53.92;100886.66;5499961;26;1447;-53
2024/04/15 04:06:30;;;;;;;;;;;;;;;16.89;54.38;100889.78;5509041;26;1213;-47
2024/04/15 04:08:57;;;;;;;;;;;;;;;16.16;54.20;100893.03;5504041;26;1193;-49
2024/04/15 04:11:24;;;;;;;;;;;;;;;15.67;52.79;100894.53;5491269;26;1866;-47
2024/04/15 04:13:50;;;;;;;;;;;;;;;16.82;53.95;100904.44;5504160;26;1229;-51
2024/04/15 04:16:15;;;;;;;;;;;;;;;15.87;53.41;100893.22;5508531;25;1473;-54
2024/04/15 04:18:43;;;;;;;;;;;;;;;15.64;51.70;100894.75;5504599;26;1271;-58
2024/04/15 04:21:09;;;;;;;;;;;;;;;16.58;53.19;100885.81;5519177;26;1155;-58
2024/04/15 04:23:35;;;;;;;;;;;;;;;16.16;53.62;100892.19;5525280;26;1761;-58
2024/04/15 04:26:00;;;;;;;;;;;;;;;17.79;52.36;100896.59;5506973;26;1115;-56
2024/04/15 04:28:26;;;;;;;;;;;;;;;17.27;52.85;100895.06;5512410;26;1647;-57
2024/04/15 04:30:51;;;;;;;;;;;;;;;16.41;52.27;100893.16;5521778;26;2657;-54
2024/04/15 04:33:17;;;;;;;;;;;;;;;16.10;51.01;100890.81;5523406;26;1683;-56
2024/04/15 04:35:42;;;;;;;;;;;;;;;15.88;50.17;100894.06;5504067;26;1054;-56
2024/04/15 04:38:08;;;;;;;;;;;;;;;15.79;49.14;100893.72;5516306;26;1243;-56
2024/04/15 04:40:33;;;;;;;;;;;;;;;16.60;51.59;100900.66;5517632;26;1182;-57
2024/04/15 04:42:59;;;;;;;;;;;;;;;16.03;50.68;100894.84;5495212;26;1260;-55
2024/04/15 04:45:25;;;;;;;;;;;;;;;17.21;52.12;100903.50;5494416;26;1118;-55
2024/04/15 04:47:50;;;;;;;;;;;;;;;16.57;52.43;100905.31;5509748;26;1292;-57
2024/04/15 04:50:16;;;;;;;;;;;;;;;16.20;51.23;100904.28;5528298;26;1268;-55
2024/04/15 04:52:42;;;;;;;;;;;;;;;15.99;49.82;100907.47;5508561;26;1840;-55
2024/04/15 04:55:08;;;;;;;;;;;;;;;15.76;49.16;100896.59;5504125;26;1304;-55
2024/04/15 04:57:33;;;;;;;;;;;;;;;15.73;48.47;100898.59;5494806;26;1269;-50
2024/04/15 04:59:59;;;;;;;;;;;;;;;15.96;49.44;100899.69;5521067;26;2643;-50
2024/04/15 05:02:25;;;;;;;;;;;;;;;16.57;50.45;100908.00;5496818;26;1203;-54
2024/04/15 05:04:51;;;;;;;;;;;;;;;15.99;49.96;100899.53;5494211;26;1110;-50
2024/04/15 05:07:16;;;;;;;;;;;;;;;15.94;48.66;100898.94;5493815;26;1220;-51
2024/04/15 05:09:42;;;;;;;;;;;;;;;16.23;49.79;100900.59;5506418;26;1217;-55
2024/04/15 05:12:07;;;;;;;;;;;;;;;16.50;50.24;100902.25;5511783;26;1830;-56
2024/04/15 05:14:33;;;;;;;;;;;;;;;16.06;49.79;100893.78;5529100;26;1770;-56
2024/04/15 05:16:59;;;;;;;;;;;;;;;15.82;49.22;100891.81;5502896;26;1453;-53
2024/04/15 05:19:25;;;;;;;;;;;;;;;15.64;48.41;100890.31;5493868;26;1122;-57
2024/04/15 05:21:51;;;;;;;;;;;;;;;15.66;47.90;100895.50;5507385;26;1290;-57
2024/04/15 05:24:16;;;;;;;;;;;;;;;15.61;47.46;100890.50;5513878;26;1774;-56
2024/04/15 05:26:42;;;;;;;;;;;;;;;16.73;49.13;100887.34;5523060;26;1235;-57
2024/04/15 05:29:07;;;;;;;;;;;;;;;16.42;50.02;100886.88;5509481;26;1346;-57
2024/04/15 05:31:33;;;;;;;;;;;;;;;16.01;49.53;100881.69;5494025;26;2485;-52
2024/04/15 05:33:59;;;;;;;;;;;;;;;15.87;48.81;100876.44;5493731;26;1111;-49
2024/04/15 05:36:24;;;;;;;;;;;;;;;16.57;49.71;100892.06;5493259;26;1254;-52
2024/04/15 05:38:50;;;;;;;;;;;;;;;16.05;49.68;100879.66;5493811;26;1248;-59
2024/04/15 05:41:15;;;;;;;;;;;;;;;15.97;48.63;100879.31;5494621;26;1237;-59
2024/04/15 05:43:41;;;;;;;;;;;;;;;15.85;48.18;100881.84;5515715;26;1193;-56
2024/04/15 05:46:06;;;;;;;;;;;;;;;16.43;49.17;100888.59;5468686;26;1166;-56
2024/04/15 05:48:32;;;;;;;;;;;;;;;16.41;49.13;100882.53;5509670;26;1202;-56
2024/04/15 05:50:57;;;;;;;;;;;;;;;16.07;48.54;100874.25;5494821;26;1825;-58
2024/04/15 05:53:23;;;;;;;;;;;;;;;15.83;48.27;100880.25;5494406;26;1186;-54
2024/04/15 05:55:48;;;;;;;;;;;;;;;15.81;47.58;100883.03;5525876;26;1190;-53
2024/04/15 05:58:14;;;;;;;;;;;;;;;15.74;47.23;100881.72;5509991;26;1276;-58
2024/04/15 06:00:39;;;;;;;;;;;;;;;15.62;47.22;100889.56;5524824;26;1344;-58
2024/04/15 06:03:05;;;;;;;;;;;;;;;17.04;48.29;100888.75;5493963;26;1268;-59
2024/04/15 06:05:32;;;;;;;;;;;;;;;16.43;49.25;100887.72;5518627;26;1225;-59
2024/04/15 06:07:57;;;;;;;;;;;;;;;16.03;49.06;100886.91;5513195;26;1225;-56
2024/04/15 06:10:24;;;;;;;;;;;;;;;15.89;48.37;100883.34;5522696;26;1579;-56
2024/04/15 06:12:49;;;;;;;;;;;;;;;15.92;48.21;100879.63;5507413;26;1822;-55
2024/04/15 06:15:15;;;;;;;;;;;;;;;16.73;48.59;100878.53;5511985;26;1404;-57
2024/04/15 06:17:40;;;;;;;;;;;;;;;16.13;48.97;100876.50;5528950;26;1738;-58
2024/04/15 06:20:06;;;;;;;;;;;;;;;15.97;48.44;100871.34;5522438;26;1327;-57
2024/04/15 06:22:32;;;;;;;;;;;;;;;15.94;47.66;100872.41;5511506;26;1217;-54
2024/04/15 06:24:57;;;;;;;;;;;;;;;16.19;48.47;100877.84;5530248;26;1226;-57
2024/04/15 06:27:23;;;;;;;;;;;;;;;16.61;48.95;100874.97;5504155;26;1162;-58
2024/04/15 06:29:48;;;;;;;;;;;;;;;16.13;48.84;100874.66;5504390;26;1189;-58
2024/04/15 06:32:14;;;;;;;;;;;;;;;15.94;48.41;100875.06;5512760;25;1829;-55
2024/04/15 06:34:39;;;;;;;;;;;;;;;15.94;47.28;100869.75;5506769;26;1346;-54
2024/04/15 06:37:05;;;;;;;;;;;;;;;15.74;47.35;100868.47;5494006;26;1450;-53
2024/04/15 06:39:30;;;;;;;;;;;;;;;16.57;48.23;100862.84;5500867;25;1346;-54
2024/04/15 06:41:56;;;;;;;;;;;;;;;16.25;48.63;100862.34;5505602;26;1415;-55
2024/04/15 06:44:21;;;;;;;;;;;;;;;15.97;48.29;100855.41;5517048;26;1386;-52
2024/04/15 06:46:47;;;;;;;;;;;;;;;15.83;48.15;100854.56;5512656;25;1673;-55
2024/04/15 06:49:12;;;;;;;;;;;;;;;15.80;47.37;100854.78;5524216;25;1580;-57
2024/04/15 06:51:38;;;;;;;;;;;;;;;16.46;48.08;100855.66;5519721;25;1862;-52
2024/04/15 06:54:05;;;;;;;;;;;;;;;16.30;48.54;100858.53;5517657;26;1430;-56
2024/04/15 06:56:31;;;;;;;;;;;;;;;15.98;48.24;100851.84;5505530;26;1295;-57
2024/04/15 06:58:57;;;;;;;;;;;;;;;16.20;48.85;100848.56;5507766;26;1379;-54
2024/04/15 07:01:22;;;;;;;;;;;;;;;16.49;48.54;100850.13;5501782;26;1328;-61
2024/04/15 07:03:48;;;;;;;;;;;;;;;16.13;48.37;100839.34;5507199;26;1237;-55
2024/04/15 07:06:13;;;;;;;;;;;;;;;16.00;47.93;100837.53;5526739;26;1251;-56
2024/04/15 07:08:39;;;;;;;;;;;;;;;16.40;48.85;100838.34;5493104;26;1225;-55
2024/04/15 07:11:04;;;;;;;;;;;;;;;16.58;48.96;100843.31;5492141;26;1866;-58
2024/04/15 07:13:33;;;;;;;;;;;;;;;16.15;48.80;100832.97;5492869;26;1260;-56
2024/04/15 07:15:59;;;;;;;;;;;;;;;16.02;48.21;100829.47;5492365;26;1207;-53
2024/04/15 07:18:24;;;;;;;;;;;;;;;15.91;47.88;100832.84;5492715;26;1150;-51
2024/04/15 07:20:50;;;;;;;;;;;;;;;15.93;47.28;100830.94;5517017;26;1451;-50
2024/04/15 07:23:15;;;;;;;;;;;;;;;15.89;47.09;100827.63;5499967;26;1283;-57
2024/04/15 07:25:41;;;;;;;;;;;;;;;17.09;47.82;100836.13;5497631;26;1324;-57
2024/04/15 07:28:06;;;;;;;;;;;;;;;16.27;48.56;100828.59;5527390;26;1510;-57
2024/04/15 07:30:32;;;;;;;;;;;;;;;16.05;48.38;100826.59;5526378;26;1543;-57
2024/04/15 07:32:59;;;;;;;;;;;;;;;15.95;47.75;100822.88;5506986;26;1851;-56
2024/04/15 07:35:30;;;;;;;;;;;;;;;15.89;47.32;100827.63;5493357;26;1199;-56
2024/04/15 07:37:56;;;;;;;;;;;;;;;15.87;47.25;100828.69;5513364;26;1445;-59
2024/04/15 07:40:21;;;;;;;;;;;;;;;15.71;47.21;100820.94;5510156;26;1383;-58
2024/04/15 07:42:47;;;;;;;;;;;;;;;16.77;48.16;100813.59;5505755;26;1412;-60
2024/04/15 07:45:12;;;;;;;;;;;;;;;16.37;48.84;100812.88;5501983;26;1626;-56
2024/04/15 07:47:38;;;;;;;;;;;;;;;16.06;48.60;100809.72;5521945;26;1453;-58
2024/04/15 07:50:03;;;;;;;;;;;;;;;15.94;48.05;100806.09;5496627;26;1233;-58
2024/04/15 07:52:29;;;;;;;;;;;;;;;15.95;47.28;100805.13;5494428;26;1854;-58
2024/04/15 07:54:54;;;;;;;;;;;;;;;15.87;47.20;100810.97;5498258;26;1491;-58
2024/04/15 07:57:20;;;;;;;;;;;;;;;15.98;47.80;100809.38;5504819;26;1666;-56
2024/04/15 07:59:46;;;;;;;;;;;;;;;16.70;48.27;100807.88;5492957;26;1212;-49
2024/04/15 08:02:12;;;;;;;;;;;;;;;16.14;48.68;100802.06;5508260;26;1368;-56
2024/04/15 08:04:37;;;;;;;;;;;;;;;16.11;48.02;100806.75;5510383;26;1646;-58
2024/04/15 08:07:03;;;;;;;;;;;;;;;16.23;48.45;100800.56;5498858;26;1178;-58
2024/04/15 08:09:29;;;;;;;;;;;;;;;16.45;48.57;100800.84;5493431;26;1379;-57
2024/04/15 08:11:55;;;;;;;;;;;;;;;16.23;48.30;100795.25;5502216;26;1836;-56
2024/04/15 08:14:20;;;;;;;;;;;;;;;16.10;47.94;100800.56;5499937;26;1763;-56
2024/04/15 08:16:46;;;;;;;;;;;;;;;15.87;47.81;100794.19;5508249;26;1165;-58
2024/04/15 08:19:11;;;;;;;;;;;;;;;15.93;47.38;100787.63;5506401;26;1125;-56
2024/04/15 08:21:37;;;;;;;;;;;;;;;15.86;47.06;100788.06;5511473;26;1163;-58
2024/04/15 08:24:03;;;;;;;;;;;;;;;15.76;46.96;100779.03;5491457;26;1269;-56
2024/04/15 08:26:28;;;;;;;;;;;;;;;15.99;47.60;100796.03;5506178;26;1271;-54
2024/04/15 08:28:54;;;;;;;;;;;;;;;16.49;47.77;100781.94;5514711;26;1323;-55
2024/04/15 08:31:19;;;;;;;;;;;;;;;16.08;48.16;100788.38;5515904;26;1829;-54
2024/04/15 08:33:45;;;;;;;;;;;;;;;15.95;48.01;100788.38;5513743;26;1726;-53
2024/04/15 08:36:12;;;;;;;;;;;;;;;15.89;47.51;100782.53;5508963;26;1129;-50
2024/04/15 08:38:40;;;;;;;;;;;;;;;15.84;47.35;100768.75;5505097;26;1798;-54
2024/04/15 08:41:05;;;;;;;;;;;;;;;15.82;46.97;100765.34;5507023;26;1782;-52
2024/04/15 08:43:31;;;;;;;;;;;;;;;16.34;47.54;100770.59;5481109;26;1387;-53
2024/04/15 08:45:58;;;;;;;;;;;;;;;16.62;48.64;100771.25;5530946;26;1237;-53
2024/04/15 08:48:24;;;;;;;;;;;;;;;16.19;48.76;100771.69;5522266;26;1368;-51
2024/04/15 08:50:54;;;;;;;;;;;;;;;16.10;48.17;100768.72;5516350;26;1833;-52
2024/04/15 08:53:20;;;;;;;;;;;;;;;16.08;47.48;100769.81;5508342;26;1553;-54
2024/04/15 08:55:46;;;;;;;;;;;;;;;16.32;48.23;100774.31;5495698;26;1055;-53
2024/04/15 08:58:11;;;;;;;;;;;;;;;16.78;48.44;100767.50;5520887;26;1273;-56
2024/04/15 09:00:37;;;;;;;;;;;;;;;16.34;48.56;100756.47;5523387;26;1045;-52
2024/04/15 09:03:03;;;;;;;;;;;;;;;16.22;48.38;100760.84;5497150;26;1237;-55
2024/04/15 09:05:28;;;;;;;;;;;;;;;16.08;47.88;100761.84;5462527;26;1158;-52
2024/04/15 09:07:54;;;;;;;;;;;;;;;16.22;48.09;100764.38;5518577;26;1210;-53
2024/04/15 09:10:19;;;;;;;;;;;;;;;16.64;48.66;100758.72;5506857;26;1141;-53
2024/04/15 09:12:45;;;;;;;;;;;;;;;16.34;48.58;100761.78;5511047;26;2844;-56
2024/04/15 09:15:11;;;;;;;;;;;;;;;16.25;47.92;100755.31;5530273;26;1514;-52
2024/04/15 09:17:37;;;;;;;;;;;;;;;16.01;48.10;100746.38;5525741;26;1122;-50
2024/04/15 09:20:02;;;;;;;;;;;;;;;16.04;47.74;100745.28;5512152;26;1302;-54
2024/04/15 09:22:28;;;;;;;;;;;;;;;16.03;47.31;100739.13;5509807;26;1220;-55
2024/04/15 09:24:55;;;;;;;;;;;;;;;16.49;48.03;100744.75;5517151;26;1077;-52
2024/04/15 09:27:24;;;;;;;;;;;;;;;16.47;48.38;100743.16;5501478;26;1134;-54
2024/04/15 09:29:49;;;;;;;;;;;;;;;16.18;47.96;100738.16;5495276;26;1304;-53
2024/04/15 09:32:15;;;;;;;;;;;;;;;16.10;47.86;100738.72;5494641;26;1875;-55
2024/04/15 09:34:40;;;;;;;;;;;;;;;16.07;47.62;100722.97;5511335;26;1335;-51
2024/04/15 09:37:10;;;;;;;;;;;;;;;16.06;47.17;100727.47;5521885;26;1208;-52
2024/04/15 09:39:36;;;;;;;;;;;;;;;16.02;46.95;100725.97;5495615;26;1211;-56
2024/04/15 09:42:02;;;;;;;;;;;;;;;15.96;47.11;100727.25;5498365;26;1270;-56
2024/04/15 09:44:29;;;;;;;;;;;;;;;15.96;46.94;100716.63;5495333;26;1246;-51
2024/04/15 09:46:55;;;;;;;;;;;;;;;15.91;46.89;100716.94;5461250;26;1151;-56
2024/04/15 09:49:21;;;;;;;;;;;;;;;15.88;46.85;100713.66;5494020;26;1189;-53
2024/04/15 09:51:46;;;;;;;;;;;;;;;15.91;46.64;100710.78;5462437;26;1829;-49
2024/04/15 09:54:12;;;;;;;;;;;;;;;15.81;46.75;100705.28;5471844;26;1322;-53
2024/04/15 09:56:41;;;;;;;;;;;;;;;15.81;46.60;100707.09;5475728;26;1295;-56
2024/04/15 09:59:10;;;;;;;;;;;;;;;15.83;46.47;100702.53;5494518;26;1181;-54
2024/04/15 10:01:36;;;;;;;;;;;;;;;15.85;46.62;100703.28;5461696;26;1057;-54
2024/04/15 10:04:04;;;;;;;;;;;;;;;16.40;47.58;100697.63;5501253;26;1300;-53
2024/04/15 10:06:39;;;;;;;;;;;;;;;16.01;47.98;100690.66;5493552;26;1325;-50
2024/04/15 10:09:05;;;;;;;;;;;;;;;15.97;47.65;100690.91;5465563;26;1514;-50
2024/04/15 10:11:30;;;;;;;;;;;;;;;15.97;47.28;100683.81;5517988;26;1879;-48
2024/04/15 10:13:58;;;;;;;;;;;;;;;16.00;46.75;100683.63;5524210;26;1221;-49
2024/04/15 10:16:23;;;;;;;;;;;;;;;15.88;46.68;100687.97;5529042;26;1364;-55
2024/04/15 10:18:56;;;;;;;;;;;;;;;15.94;46.68;100683.19;5463050;26;1158;-52
2024/04/15 10:21:22;;;;;;;;;;;;;;;15.78;46.83;100677.16;5494041;26;1176;-51
2024/04/15 10:23:48;;;;;;;;;;;;;;;16.94;47.01;100676.00;5518354;26;1154;-53
2024/04/15 10:26:13;;;;;;;;;;;;;;;16.24;48.01;100671.34;5491111;26;1074;-51
2024/04/15 10:28:39;;;;;;;;;;;;;;;16.10;47.89;100667.88;5518316;26;1210;-54
2024/04/15 10:31:05;;;;;;;;;;;;;;;16.07;47.68;100672.56;5493559;26;1864;-51
2024/04/15 10:33:30;;;;;;;;;;;;;;;15.99;47.35;100673.13;5518698;26;1495;-50
2024/04/15 10:35:56;;;;;;;;;;;;;;;15.98;47.28;100668.75;5529554;26;1363;-51
2024/04/15 10:38:26;;;;;;;;;;;;;;;15.91;47.33;100663.88;5499314;26;1578;-49
2024/04/15 10:40:52;;;;;;;;;;;;;;;15.91;46.91;100658.56;5504741;26;1225;-51
2024/04/15 10:43:18;;;;;;;;;;;;;;;15.91;46.84;100658.56;5528328;26;1211;-54
2024/04/15 10:45:46;;;;;;;;;;;;;;;16.86;47.61;100657.97;5492478;26;1127;-58
2024/04/15 10:48:12;;;;;;;;;;;;;;;16.37;48.21;100647.41;5518667;26;1490;-55
2024/04/15 10:50:37;;;;;;;;;;;;;;;16.08;48.24;100640.59;5507430;26;1279;-57
2024/04/15 10:53:03;;;;;;;;;;;;;;;16.04;48.09;100639.16;5528220;26;1849;-57
2024/04/15 10:55:29;;;;;;;;;;;;;;;16.07;47.86;100638.06;5492948;26;1178;-54
2024/04/15 10:57:55;;;;;;;;;;;;;;;15.96;47.43;100626.41;5493597;26;1090;-56
2024/04/15 11:00:21;;;;;;;;;;;;;;;15.87;47.41;100635.03;5496502;26;1181;-55
2024/04/15 11:02:48;;;;;;;;;;;;;;;15.97;47.03;100617.50;5493701;26;1295;-58
2024/04/15 11:05:14;;;;;;;;;;;;;;;15.95;46.89;100611.44;5529745;26;1213;-51
2024/04/15 11:07:39;;;;;;;;;;;;;;;15.96;46.87;100607.84;5520313;26;1558;-54
2024/04/15 11:10:07;;;;;;;;;;;;;;;15.86;46.84;100606.81;5492591;26;1145;-52
2024/04/15 11:12:33;;;;;;;;;;;;;;;15.95;46.45;100605.31;5519198;26;1843;-54
2024/04/15 11:14:58;;;;;;;;;;;;;;;15.92;46.59;100609.00;5529542;26;1216;-54
2024/04/15 11:17:24;;;;;;;;;;;;;;;15.83;46.69;100609.69;5498381;26;1155;-56
2024/04/15 11:20:02;;;;;;;;;;;;;;;15.84;46.68;100604.28;5492914;26;1235;-55
2024/04/15 11:22:28;;;;;;;;;;;;;;;15.84;46.50;100591.00;5522564;26;1343;-57
2024/04/15 11:24:54;;;;;;;;;;;;;;;15.79;46.48;100586.03;5509963;26;1412;-56
2024/04/15 11:27:19;;;;;;;;;;;;;;;15.91;46.61;100591.41;5522541;26;1665;-56
2024/04/15 11:29:45;;;;;;;;;;;;;;;16.94;46.91;100589.16;5479132;26;1363;-54
2024/04/15 11:32:11;;;;;;;;;;;;;;;16.27;47.90;100587.03;5493413;26;1835;-55
2024/04/15 11:34:37;;;;;;;;;;;;;;;16.20;47.73;100579.66;5461563;26;1421;-56
2024/04/15 11:37:02;;;;;;;;;;;;;;;16.04;47.63;100572.81;5493454;26;1459;-56
2024/04/15 11:39:28;;;;;;;;;;;;;;;16.10;47.21;100561.75;5460255;26;1478;-56
2024/04/15 11:41:54;;;;;;;;;;;;;;;16.02;47.11;100557.00;5507230;25;1505;-56
2024/04/15 11:44:19;;;;;;;;;;;;;;;15.96;46.71;100546.84;5492425;26;1356;-56
2024/04/15 11:46:46;;;;;;;;;;;;;;;17.07;46.99;100549.19;5494018;26;1762;-57
2024/04/15 11:49:12;;;;;;;;;;;;;;;16.41;47.87;100550.66;5515557;26;1379;-57
2024/04/15 11:51:37;;;;;;;;;;;;;;;16.19;48.02;100541.66;5487813;26;1854;-57
2024/04/15 11:54:03;;;;;;;;;;;;;;;16.20;47.56;100531.88;5481060;26;1175;-58
2024/04/15 11:56:28;;;;;;;;;;;;;;;16.02;47.57;100530.47;5495518;26;1443;-58
2024/04/15 11:58:54;;;;;;;;;;;;;;;16.00;47.38;100520.91;5494455;26;1297;-56
2024/04/15 12:01:19;;;;;;;;;;;;;;;16.05;47.01;100516.13;5491378;26;1391;-56
2024/04/15 12:03:44;;;;;;;;;;;;;;;15.99;46.90;100517.44;5529086;26;1386;-57
2024/04/15 12:06:10;;;;;;;;;;;;;;;16.02;46.88;100519.88;5503925;26;1528;-57
2024/04/15 12:08:38;;;;;;;;;;;;;;;16.01;46.53;100502.25;5507535;26;1308;-57
2024/04/15 12:11:07;;;;;;;;;;;;;;;15.90;46.64;100510.97;5503261;26;1825;-57
2024/04/15 12:13:32;;;;;;;;;;;;;;;15.98;46.37;100510.44;5521452;26;1234;-55
2024/04/15 12:15:58;;;;;;;;;;;;;;;15.92;46.55;100494.94;5467096;26;1298;-52
2024/04/15 12:18:24;;;;;;;;;;;;;;;15.73;46.67;100467.13;5495469;26;1392;-54
2024/04/15 12:20:49;;;;;;;;;;;;;;;15.92;46.48;100489.63;5503318;26;1486;-56
2024/04/15 12:23:15;;;;;;;;;;;;;;;15.87;46.39;100494.44;5499601;26;1509;-54
2024/04/15 12:25:41;;;;;;;;;;;;;;;16.91;47.22;100483.13;5520869;26;1231;-54
2024/04/15 12:28:06;;;;;;;;;;;;;;;16.36;47.59;100475.81;5499860;26;1277;-56
2024/04/15 12:30:32;;;;;;;;;;;;;;;16.13;47.68;100476.59;5492758;26;1297;-57
2024/04/15 12:32:58;;;;;;;;;;;;;;;16.04;47.57;100474.66;5514062;26;1851;-55
2024/04/15 12:35:24;;;;;;;;;;;;;;;16.10;47.09;100466.22;5500514;26;1438;-56
2024/04/15 12:37:49;;;;;;;;;;;;;;;16.01;47.19;100462.47;5495125;26;1431;-56
2024/04/15 12:40:15;;;;;;;;;;;;;;;15.99;46.92;100460.88;5519473;26;1188;-56